createdAt,value
2023-01-27T00:00:51.041Z,2.63
2023-01-27T00:03:18.579Z,5.10
2023-01-27T00:05:46.863Z,4.93
2023-01-27T00:08:14.399Z,3.85
2023-01-27T00:10:41.731Z,2.47
2023-01-27T00:13:28.012Z,3.65
2023-01-27T00:15:56.090Z,2.90
2023-01-27T00:18:23.928Z,3.22
2023-01-27T00:21:10.017Z,2.28
2023-01-27T00:23:55.785Z,3.00
2023-01-27T00:26:23.350Z,2.38
2023-01-27T00:28:50.448Z,2.05
2023-01-27T00:31:37.575Z,2.28
2023-01-27T00:34:11.645Z,1.70
2023-01-27T00:36:41.831Z,2.08
2023-01-27T00:39:11.112Z,1.88
2023-01-27T00:41:39.906Z,2.58
2023-01-27T00:44:12.880Z,4.32
2023-01-27T00:46:42.109Z,2.00
2023-01-27T00:49:10.924Z,3.00
2023-01-27T00:51:38.104Z,5.40
2023-01-27T00:54:05.726Z,8.50
2023-01-27T00:56:32.925Z,4.95
2023-01-27T00:59:00.405Z,4.68
2023-01-27T01:01:28.185Z,5.25
2023-01-27T01:03:56.070Z,6.43
2023-01-27T01:06:23.067Z,4.88
2023-01-27T01:08:51.533Z,4.80
2023-01-27T01:11:20.676Z,6.68
2023-01-27T01:13:48.124Z,5.55
2023-01-27T01:16:18.706Z,4.68
2023-01-27T01:18:45.984Z,4.10
2023-01-27T01:21:13.620Z,6.22
2023-01-27T01:23:45.596Z,7.53
2023-01-27T01:26:14.583Z,5.45
2023-01-27T01:28:42.076Z,4.90
2023-01-27T01:31:12.019Z,6.15
2023-01-27T01:33:39.441Z,4.85
2023-01-27T01:36:06.568Z,6.35
2023-01-27T01:38:33.638Z,4.38
2023-01-27T01:41:00.697Z,3.92
2023-01-27T01:43:28.105Z,4.38
2023-01-27T01:46:02.526Z,4.32
2023-01-27T01:48:38.399Z,3.90
2023-01-27T01:51:21.777Z,4.50
2023-01-27T01:53:52.956Z,3.38
2023-01-27T01:56:26.371Z,4.40
2023-01-27T01:58:57.736Z,3.92
2023-01-27T02:01:24.873Z,4.00
2023-01-27T02:03:59.779Z,3.28
2023-01-27T02:06:26.885Z,3.25
2023-01-27T02:08:55.409Z,2.40
2023-01-27T02:11:22.789Z,3.30
2023-01-27T02:13:49.825Z,2.53
2023-01-27T02:16:16.968Z,3.70
2023-01-27T02:18:44.574Z,2.85
2023-01-27T02:21:11.690Z,3.97
2023-01-27T02:24:02.218Z,3.05
2023-01-27T02:26:32.677Z,2.45
2023-01-27T02:29:05.516Z,3.13
2023-01-27T02:31:33.056Z,2.42
2023-01-27T02:34:04.732Z,3.10
2023-01-27T02:36:36.433Z,2.67
2023-01-27T02:39:04.543Z,3.92
2023-01-27T02:41:42.999Z,4.70
2023-01-27T02:44:11.503Z,2.40
2023-01-27T02:46:39.668Z,3.10
2023-01-27T02:49:07.908Z,2.88
2023-01-27T02:51:35.934Z,3.05
2023-01-27T02:54:03.048Z,3.88
2023-01-27T02:56:30.221Z,3.60
2023-01-27T02:58:58.302Z,3.42
2023-01-27T03:01:34.514Z,4.47
2023-01-27T03:04:02.529Z,3.78
2023-01-27T03:06:29.673Z,5.68
2023-01-27T03:08:56.695Z,4.28
2023-01-27T03:11:42.041Z,3.45
2023-01-27T03:14:10.069Z,4.95
2023-01-27T03:16:55.894Z,3.58
2023-01-27T03:19:22.938Z,5.00
2023-01-27T03:21:51.389Z,3.72
2023-01-27T03:24:21.226Z,4.75
2023-01-27T03:26:48.851Z,3.20
2023-01-27T03:29:36.487Z,5.45
2023-01-27T03:32:03.734Z,3.25
2023-01-27T03:34:31.933Z,3.55
2023-01-27T03:37:28.717Z,3.65
2023-01-27T03:40:15.126Z,3.08
2023-01-27T03:43:00.486Z,4.10
2023-01-27T03:45:46.164Z,3.78
2023-01-27T03:48:14.098Z,4.25
2023-01-27T03:50:44.077Z,3.72
2023-01-27T03:53:11.312Z,2.63
2023-01-27T03:55:39.484Z,4.43
2023-01-27T03:58:20.848Z,3.88
2023-01-27T04:00:54.153Z,3.00
2023-01-27T04:03:42.284Z,2.70
2023-01-27T04:06:36.929Z,3.03
2023-01-27T04:09:05.767Z,3.40
2023-01-27T04:11:51.540Z,2.88
2023-01-27T04:14:18.767Z,4.25
2023-01-27T04:16:46.367Z,2.35
2023-01-27T04:19:13.946Z,3.47
2023-01-27T04:21:41.858Z,3.72
2023-01-27T04:24:17.448Z,3.95
2023-01-27T04:26:45.648Z,3.38
2023-01-27T04:29:13.898Z,2.92
2023-01-27T04:31:41.256Z,5.72
2023-01-27T04:34:09.112Z,4.15
2023-01-27T04:36:36.109Z,4.93
2023-01-27T04:39:03.428Z,3.33
2023-01-27T04:41:30.449Z,4.85
2023-01-27T04:43:57.505Z,5.60
2023-01-27T04:46:24.738Z,20.20
2023-01-27T04:48:51.715Z,4.25
2023-01-27T04:51:18.872Z,4.97
2023-01-27T04:53:45.919Z,5.72
2023-01-27T04:56:34.245Z,4.85
2023-01-27T04:59:04.295Z,5.15
2023-01-27T05:01:31.428Z,3.85
2023-01-27T05:03:58.643Z,4.03
2023-01-27T05:06:26.407Z,7.70
2023-01-27T05:08:53.882Z,6.10
2023-01-27T05:11:21.166Z,5.82
2023-01-27T05:13:48.724Z,6.13
2023-01-27T05:16:17.901Z,5.30
2023-01-27T05:18:47.309Z,4.70
2023-01-27T05:21:28.333Z,6.05
2023-01-27T05:23:55.567Z,7.63
2023-01-27T05:26:27.764Z,7.82
2023-01-27T05:28:57.582Z,6.00
2023-01-27T05:31:30.293Z,5.65
2023-01-27T05:34:00.083Z,8.65
2023-01-27T05:36:28.163Z,6.25
2023-01-27T05:38:56.383Z,8.23
2023-01-27T05:41:24.032Z,7.22
2023-01-27T05:43:56.101Z,5.90
2023-01-27T05:46:33.671Z,6.82
2023-01-27T05:49:05.487Z,7.90
2023-01-27T05:51:37.109Z,5.30
2023-01-27T05:54:04.573Z,7.63
2023-01-27T05:56:32.176Z,7.65
2023-01-27T05:59:00.052Z,6.88
2023-01-27T06:01:32.683Z,8.25
2023-01-27T06:04:00.572Z,7.72
2023-01-27T06:06:29.788Z,6.10
2023-01-27T06:08:57.309Z,10.82
2023-01-27T06:11:24.976Z,9.13
2023-01-27T06:13:53.458Z,10.45
2023-01-27T06:16:22.528Z,8.90
2023-01-27T06:18:49.791Z,10.77
2023-01-27T06:21:17.928Z,8.75
2023-01-27T06:23:44.985Z,6.82
2023-01-27T06:26:17.487Z,8.45
2023-01-27T06:28:45.442Z,7.97
2023-01-27T06:31:15.206Z,11.75
2023-01-27T06:33:42.599Z,8.02
2023-01-27T06:36:15.653Z,11.30
2023-01-27T06:38:43.431Z,11.10
2023-01-27T06:41:11.350Z,10.75
2023-01-27T06:43:38.831Z,14.98
2023-01-27T06:46:06.458Z,16.55
2023-01-27T06:48:34.036Z,15.48
2023-01-27T06:51:01.313Z,17.00
2023-01-27T06:53:28.301Z,22.27
2023-01-27T06:56:00.150Z,26.85
2023-01-27T06:58:28.085Z,21.23
2023-01-27T07:00:56.180Z,27.35
2023-01-27T07:03:23.758Z,29.42
2023-01-27T07:05:50.811Z,25.83
2023-01-27T07:08:17.790Z,34.13
2023-01-27T07:10:44.766Z,28.23
2023-01-27T07:13:13.525Z,23.30
2023-01-27T07:15:40.791Z,24.50
2023-01-27T07:18:07.964Z,21.85
2023-01-27T07:20:35.200Z,22.10
2023-01-27T07:23:04.815Z,20.60
2023-01-27T07:25:33.801Z,24.95
2023-01-27T07:28:02.343Z,17.60
2023-01-27T07:30:29.974Z,17.05
2023-01-27T07:33:03.604Z,17.13
2023-01-27T07:35:30.689Z,13.93
2023-01-27T07:37:58.360Z,16.33
2023-01-27T07:40:25.546Z,18.00
2023-01-27T07:42:52.521Z,16.98
2023-01-27T07:45:20.218Z,18.00
2023-01-27T07:47:47.251Z,20.35
2023-01-27T07:50:14.721Z,19.67
2023-01-27T07:52:41.873Z,18.67
2023-01-27T07:55:09.427Z,16.08
2023-01-27T07:57:36.400Z,13.80
2023-01-27T08:00:12.053Z,19.23
2023-01-27T08:02:39.301Z,18.77
2023-01-27T08:05:07.275Z,16.67
2023-01-27T08:07:34.219Z,15.80
2023-01-27T08:10:01.526Z,18.05
2023-01-27T08:12:30.427Z,22.65
2023-01-27T08:14:57.558Z,14.48
2023-01-27T08:17:24.648Z,12.98
2023-01-27T08:19:52.293Z,15.88
2023-01-27T08:22:22.537Z,12.48
2023-01-27T08:24:50.232Z,13.10
2023-01-27T08:27:18.031Z,10.48
2023-01-27T08:29:46.306Z,6.20
2023-01-27T08:32:15.232Z,11.32
2023-01-27T08:34:42.535Z,12.25
2023-01-27T08:37:09.593Z,13.15
2023-01-27T08:39:36.862Z,10.30
2023-01-27T08:42:03.954Z,9.07
2023-01-27T08:44:31.079Z,14.70
2023-01-27T08:46:58.114Z,7.22
2023-01-27T08:49:25.128Z,11.93
2023-01-27T08:51:52.219Z,8.38
2023-01-27T08:54:19.286Z,6.65
2023-01-27T08:56:46.381Z,6.32
2023-01-27T08:59:13.313Z,6.97
2023-01-27T09:01:41.887Z,5.57
2023-01-27T09:04:09.920Z,7.75
2023-01-27T09:06:37.103Z,3.22
2023-01-27T09:09:11.935Z,3.83
2023-01-27T09:11:42.558Z,3.47
2023-01-27T09:14:10.368Z,3.97
2023-01-27T09:16:37.649Z,3.97
2023-01-27T09:19:04.678Z,6.22
2023-01-27T09:21:32.619Z,2.58
2023-01-27T09:24:04.005Z,2.92
2023-01-27T09:26:36.701Z,3.83
2023-01-27T09:29:05.081Z,5.47
2023-01-27T09:31:32.334Z,4.07
2023-01-27T09:33:59.628Z,4.60
2023-01-27T09:36:30.668Z,6.93
2023-01-27T09:39:02.824Z,2.33
2023-01-27T09:41:38.651Z,2.80
2023-01-27T09:44:11.647Z,5.30
2023-01-27T09:47:19.864Z,2.17
2023-01-27T09:50:14.702Z,5.38
2023-01-27T09:53:19.513Z,5.22
2023-01-27T09:55:58.334Z,3.92
2023-01-27T09:58:34.044Z,3.55
2023-01-27T10:01:07.013Z,5.82
2023-01-27T10:04:03.399Z,4.32
2023-01-27T10:06:39.525Z,5.82
2023-01-27T10:09:45.018Z,4.80
2023-01-27T10:12:33.558Z,7.75
2023-01-27T10:15:37.413Z,6.40
2023-01-27T10:18:13.321Z,5.53
2023-01-27T10:21:01.186Z,3.95
2023-01-27T10:23:31.022Z,4.82
2023-01-27T10:26:17.960Z,8.90
2023-01-27T10:28:51.277Z,3.63
2023-01-27T10:33:53.954Z,3.00
2023-01-27T10:36:27.573Z,5.57
2023-01-27T10:39:20.235Z,4.47
2023-01-27T10:42:05.037Z,2.50
2023-01-27T10:44:56.740Z,3.17
2023-01-27T10:47:54.798Z,3.72
2023-01-27T10:50:47.807Z,1.88
2023-01-27T10:53:20.275Z,1.63
2023-01-27T10:56:03.907Z,2.08
2023-01-27T11:01:22.192Z,1.70
2023-01-27T11:04:10.587Z,2.85
2023-01-27T11:06:40.469Z,2.90
2023-01-27T11:09:31.364Z,4.38
2023-01-27T11:12:02.995Z,4.38
2023-01-27T11:14:38.964Z,5.30
2023-01-27T11:17:42.637Z,3.15
2023-01-27T11:20:26.924Z,3.70
2023-01-27T11:23:13.819Z,2.92
2023-01-27T11:25:55.318Z,2.15
2023-01-27T11:28:51.080Z,3.30
2023-01-27T11:31:39.698Z,4.15
2023-01-27T11:34:40.164Z,3.33
2023-01-27T11:37:13.624Z,8.10
2023-01-27T11:42:09.449Z,2.97
2023-01-27T11:44:36.959Z,1.92
2023-01-27T11:47:07.823Z,2.03
2023-01-27T11:49:40.202Z,2.92
2023-01-27T11:52:14.293Z,3.28
2023-01-27T11:54:49.957Z,5.07
2023-01-27T11:57:20.877Z,4.47
2023-01-27T11:59:52.304Z,3.38
2023-01-27T12:02:45.070Z,2.88
2023-01-27T12:05:21.415Z,2.45
2023-01-27T12:07:57.135Z,5.72
2023-01-27T12:10:36.204Z,3.67
2023-01-27T12:13:21.198Z,5.85
2023-01-27T12:15:53.558Z,7.00
2023-01-27T12:18:21.141Z,2.40
2023-01-27T12:20:59.331Z,5.47
2023-01-27T12:23:31.781Z,4.60
2023-01-27T12:26:05.283Z,3.22
2023-01-27T12:28:36.745Z,1.98
2023-01-27T12:31:20.186Z,1.80
2023-01-27T12:34:03.619Z,1.92
2023-01-27T12:36:39.375Z,3.75
2023-01-27T12:39:07.939Z,1.85
2023-01-27T12:41:38.222Z,1.67
2023-01-27T12:44:15.253Z,2.72
2023-01-27T12:47:02.149Z,6.25
2023-01-27T12:49:38.937Z,4.03
2023-01-27T12:52:09.837Z,4.25
2023-01-27T12:54:37.465Z,2.97
2023-01-27T12:57:10.630Z,2.35
2023-01-27T12:59:48.062Z,3.05
2023-01-27T13:02:24.344Z,1.67
2023-01-27T13:04:54.709Z,2.33
2023-01-27T13:07:31.528Z,4.43
2023-01-27T13:10:03.739Z,3.20
2023-01-27T13:13:01.358Z,5.38
2023-01-27T13:15:31.331Z,2.08
2023-01-27T13:18:00.334Z,3.17
2023-01-27T13:20:31.727Z,1.90
2023-01-27T13:23:19.589Z,2.25
2023-01-27T13:26:08.437Z,2.60
2023-01-27T13:28:57.440Z,5.47
2023-01-27T13:31:33.580Z,3.05
2023-01-27T13:34:14.030Z,3.70
2023-01-27T13:36:53.600Z,4.68
2023-01-27T13:39:34.019Z,3.15
2023-01-27T13:42:26.511Z,3.33
2023-01-27T13:45:11.691Z,3.35
2023-01-27T13:47:41.800Z,2.13
2023-01-27T13:50:18.926Z,1.80
2023-01-27T13:52:51.141Z,4.47
2023-01-27T13:55:26.933Z,1.85
2023-01-27T13:57:58.976Z,2.88
2023-01-27T14:00:37.634Z,3.13
2023-01-27T14:03:10.863Z,2.55
2023-01-27T14:06:26.363Z,2.15
2023-01-27T14:08:58.750Z,2.67
2023-01-27T14:11:51.870Z,3.42
2023-01-27T14:14:57.898Z,8.10
2023-01-27T14:17:50.034Z,5.38
2023-01-27T14:20:30.175Z,7.90
2023-01-27T14:23:12.789Z,6.00
2023-01-27T14:25:42.830Z,2.40
2023-01-27T14:28:48.951Z,1.85
2023-01-27T14:31:42.171Z,4.28
2023-01-27T14:34:37.220Z,1.75
2023-01-27T14:37:28.074Z,3.65
2023-01-27T14:40:03.502Z,3.33
2023-01-27T14:42:43.101Z,3.40
2023-01-27T14:45:33.042Z,2.10
2023-01-27T14:48:12.222Z,2.75
2023-01-27T14:50:39.289Z,1.63
2023-01-27T14:53:42.548Z,2.60
2023-01-27T14:56:28.957Z,5.38
2023-01-27T14:59:09.691Z,2.63
2023-01-27T15:02:03.144Z,4.35
2023-01-27T15:05:11.854Z,5.70
2023-01-27T15:07:51.324Z,3.15
2023-01-27T15:10:27.049Z,2.38
2023-01-27T15:13:26.241Z,2.47
2023-01-27T15:16:14.801Z,4.03
2023-01-27T15:19:08.011Z,2.80
2023-01-27T15:22:12.612Z,6.38
2023-01-27T15:24:52.769Z,1.80
2023-01-27T15:27:21.200Z,4.07
2023-01-27T15:29:48.744Z,3.42
2023-01-27T15:32:15.826Z,1.85
2023-01-27T15:34:45.411Z,3.33
2023-01-27T15:37:20.793Z,4.82
2023-01-27T15:40:08.776Z,2.28
2023-01-27T15:43:06.690Z,5.25
2023-01-27T15:45:36.931Z,5.15
2023-01-27T15:48:10.701Z,2.47
2023-01-27T15:50:45.474Z,3.75
2023-01-27T15:53:24.735Z,3.65
2023-01-27T15:55:56.241Z,3.03
2023-01-27T15:58:28.927Z,7.00
2023-01-27T16:00:57.954Z,2.90
2023-01-27T16:03:32.591Z,8.48
2023-01-27T16:06:24.316Z,3.20
2023-01-27T16:09:04.467Z,3.05
2023-01-27T16:11:31.556Z,2.58
2023-01-27T16:14:17.415Z,3.15
2023-01-27T16:16:50.590Z,3.83
2023-01-27T16:19:31.792Z,2.90
2023-01-27T16:22:06.150Z,2.72
2023-01-27T16:24:48.672Z,4.35
2023-01-27T16:27:53.350Z,4.53
2023-01-27T16:30:39.388Z,3.80
2023-01-27T16:33:30.032Z,8.00
2023-01-27T16:36:28.131Z,6.13
2023-01-27T16:38:59.766Z,2.60
2023-01-27T16:41:29.893Z,4.00
2023-01-27T16:44:16.261Z,2.65
2023-01-27T16:46:49.682Z,4.50
2023-01-27T16:51:58.298Z,3.13
2023-01-27T16:54:31.461Z,5.10
2023-01-27T16:56:58.701Z,2.00
2023-01-27T16:59:30.240Z,2.22
2023-01-27T17:02:06.086Z,3.00
2023-01-27T17:04:33.387Z,2.22
2023-01-27T17:07:09.009Z,2.88
2023-01-27T17:09:42.791Z,2.20
2023-01-27T17:12:29.520Z,2.10
2023-01-27T17:14:59.081Z,3.10
2023-01-27T17:17:28.140Z,2.20
2023-01-27T17:20:02.778Z,4.03
2023-01-27T17:22:39.680Z,3.53
2023-01-27T17:25:16.598Z,3.35
2023-01-27T17:27:45.423Z,2.10
2023-01-27T17:30:25.181Z,2.50
2023-01-27T17:33:05.363Z,4.30
2023-01-27T17:35:36.346Z,2.40
2023-01-27T17:38:21.356Z,3.15
2023-01-27T17:40:50.522Z,2.28
2023-01-27T17:43:24.655Z,2.92
2023-01-27T17:46:13.259Z,2.50
2023-01-27T17:48:45.166Z,2.30
2023-01-27T17:51:15.403Z,2.75
2023-01-27T17:53:43.187Z,4.03
2023-01-27T17:56:13.155Z,2.50
2023-01-27T17:58:43.288Z,2.75
2023-01-27T18:01:10.906Z,1.65
2023-01-27T18:03:39.103Z,3.50
2023-01-27T18:06:09.587Z,3.92
2023-01-27T18:08:37.012Z,1.67
2023-01-27T18:11:12.659Z,4.25
2023-01-27T18:13:41.479Z,2.78
2023-01-27T18:16:16.783Z,2.75
2023-01-27T18:18:44.232Z,2.50
2023-01-27T18:21:23.702Z,5.82
2023-01-27T18:23:58.340Z,7.13
2023-01-27T18:26:39.756Z,5.03
2023-01-27T18:29:22.800Z,10.23
2023-01-27T18:31:59.520Z,7.60
2023-01-27T18:34:32.653Z,7.95
2023-01-27T18:37:25.249Z,9.73
2023-01-27T18:39:52.527Z,7.60
2023-01-27T18:42:21.642Z,6.53
2023-01-27T18:44:52.948Z,7.00
2023-01-27T18:47:19.947Z,9.07
2023-01-27T18:49:59.262Z,7.63
2023-01-27T18:52:27.414Z,11.45
2023-01-27T18:55:23.342Z,9.13
2023-01-27T18:57:53.379Z,7.70
2023-01-27T19:00:36.077Z,11.15
2023-01-27T19:03:04.534Z,8.98
2023-01-27T19:05:34.008Z,10.13
2023-01-27T19:08:02.107Z,10.90
2023-01-27T19:10:34.815Z,11.02
2023-01-27T19:13:03.606Z,8.50
2023-01-27T19:15:35.279Z,10.52
2023-01-27T19:18:20.507Z,19.65
2023-01-27T19:20:47.570Z,10.88
2023-01-27T19:23:16.244Z,16.05
2023-01-27T19:25:45.755Z,11.27
2023-01-27T19:28:31.710Z,13.48
2023-01-27T19:30:59.375Z,10.73
2023-01-27T19:33:27.800Z,12.25
2023-01-27T19:36:00.943Z,9.98
2023-01-27T19:38:30.108Z,9.43
2023-01-27T19:40:57.083Z,17.05
2023-01-27T19:43:24.244Z,12.07
2023-01-27T19:45:52.421Z,14.80
2023-01-27T19:48:24.383Z,16.85
2023-01-27T19:50:52.968Z,11.80
2023-01-27T19:53:20.684Z,15.75
2023-01-27T19:55:48.398Z,11.10
2023-01-27T19:58:26.432Z,12.15
2023-01-27T20:00:55.001Z,17.10
2023-01-27T20:03:23.662Z,19.00
2023-01-27T20:05:50.914Z,13.88
2023-01-27T20:08:21.260Z,16.23
2023-01-27T20:10:48.443Z,15.57
2023-01-27T20:13:19.393Z,12.90
2023-01-27T20:15:47.581Z,14.15
2023-01-27T20:18:16.562Z,13.13
2023-01-27T20:20:44.851Z,15.68
2023-01-27T20:23:16.117Z,11.02
2023-01-27T20:25:43.602Z,13.82
2023-01-27T20:28:12.313Z,13.60
2023-01-27T20:30:39.461Z,15.57
2023-01-27T20:33:06.487Z,12.73
2023-01-27T20:35:33.674Z,15.68
2023-01-27T20:38:02.616Z,14.75
2023-01-27T20:40:30.602Z,13.00
2023-01-27T20:42:57.821Z,15.98
2023-01-27T20:45:24.832Z,15.95
2023-01-27T20:47:54.055Z,18.33
2023-01-27T20:50:23.425Z,15.13
2023-01-27T20:52:52.342Z,17.63
2023-01-27T20:55:19.544Z,15.10
2023-01-27T20:57:47.675Z,21.60
2023-01-27T21:00:19.655Z,21.92
2023-01-27T21:02:47.796Z,27.88
2023-01-27T21:05:15.433Z,24.25
2023-01-27T21:07:43.194Z,34.88
2023-01-27T21:10:10.857Z,32.83
2023-01-27T21:12:38.203Z,31.60
2023-01-27T21:15:09.975Z,32.92
2023-01-27T21:17:37.816Z,35.88
2023-01-27T21:20:05.496Z,30.02
2023-01-27T21:22:34.682Z,24.00
2023-01-27T21:25:01.853Z,26.98
2023-01-27T21:27:29.236Z,27.75
2023-01-27T21:29:56.366Z,24.88
2023-01-27T21:32:23.453Z,21.90
2023-01-27T21:34:50.502Z,24.08
2023-01-27T21:37:17.695Z,25.90
2023-01-27T21:39:44.776Z,25.67
2023-01-27T21:42:14.911Z,24.02
2023-01-27T21:45:00.652Z,23.42
2023-01-27T21:47:27.827Z,23.95
2023-01-27T21:50:00.577Z,24.98
2023-01-27T21:52:36.876Z,24.60
2023-01-27T21:55:09.510Z,19.40
2023-01-27T21:57:36.659Z,21.00
2023-01-27T22:00:06.420Z,22.90
2023-01-27T22:02:43.165Z,19.45
2023-01-27T22:05:11.883Z,23.35
2023-01-27T22:07:38.980Z,21.60
2023-01-27T22:10:08.111Z,20.40
2023-01-27T22:12:35.199Z,20.80
2023-01-27T22:15:02.397Z,22.17
2023-01-27T22:17:29.407Z,23.85
2023-01-27T22:19:56.593Z,24.13
2023-01-27T22:22:23.850Z,32.75
2023-01-27T22:24:50.986Z,29.25
2023-01-27T22:27:17.981Z,30.23
2023-01-27T22:29:45.103Z,30.35
2023-01-27T22:32:12.305Z,36.78
2023-01-27T22:34:39.527Z,34.17
2023-01-27T22:37:06.809Z,34.85
2023-01-27T22:39:34.199Z,36.17
2023-01-27T22:42:01.282Z,25.67
2023-01-27T22:44:28.311Z,23.60
2023-01-27T22:46:55.440Z,25.25
2023-01-27T22:49:22.438Z,25.33
2023-01-27T22:51:49.470Z,20.42
2023-01-27T22:54:16.590Z,19.52
2023-01-27T22:56:43.596Z,21.88
2023-01-27T22:59:13.938Z,23.00
2023-01-27T23:01:41.128Z,19.88
2023-01-27T23:04:10.675Z,18.38
2023-01-27T23:06:37.725Z,21.45
2023-01-27T23:09:04.795Z,19.27
2023-01-27T23:11:32.388Z,20.98
2023-01-27T23:14:00.970Z,22.58
2023-01-27T23:16:28.145Z,19.55
2023-01-27T23:18:55.557Z,20.10
2023-01-27T23:21:22.595Z,22.35
2023-01-27T23:23:50.608Z,19.17
2023-01-27T23:26:18.009Z,19.90
2023-01-27T23:28:45.245Z,19.95
2023-01-27T23:31:13.937Z,19.63
2023-01-27T23:33:43.033Z,18.63
2023-01-27T23:36:11.255Z,18.17
2023-01-27T23:38:38.614Z,15.57
2023-01-27T23:41:18.550Z,16.50
2023-01-27T23:43:50.919Z,16.65
2023-01-27T23:46:18.421Z,18.10
2023-01-27T23:48:50.773Z,16.08
2023-01-27T23:51:19.162Z,13.85
2023-01-27T23:53:46.992Z,14.85
2023-01-27T23:56:19.915Z,16.98
2023-01-27T23:58:47.730Z,17.15
